createdAt,value
2018-04-27T00:02:02.004Z,16.53
2018-04-27T00:05:05.370Z,19.20
2018-04-27T00:08:08.664Z,14.20
2018-04-27T00:11:12.084Z,17.63
2018-04-27T00:14:15.380Z,21.13
2018-04-27T00:17:18.784Z,15.37
2018-04-27T00:20:22.077Z,14.20
2018-04-27T00:23:25.392Z,18.63
2018-04-27T00:26:28.777Z,19.73
2018-04-27T00:29:32.110Z,20.47
2018-04-27T00:32:35.408Z,21.17
2018-04-27T00:35:38.757Z,17.93
2018-04-27T00:38:42.082Z,14.03
2018-04-27T00:41:45.479Z,18.33
2018-04-27T00:44:48.792Z,15.83
2018-04-27T00:47:52.173Z,18.33
2018-04-27T00:50:55.471Z,16.47
2018-04-27T00:53:58.796Z,19.63
2018-04-27T00:57:02.172Z,11.20
2018-04-27T01:00:05.497Z,25.10
2018-04-27T01:03:08.808Z,22.50
2018-04-27T01:06:12.976Z,18.60
2018-04-27T01:09:16.385Z,14.33
2018-04-27T01:12:19.709Z,18.70
2018-04-27T01:15:24.018Z,13.50
2018-04-27T01:18:27.396Z,14.30
2018-04-27T01:21:30.863Z,12.50
2018-04-27T01:24:34.199Z,18.33
2018-04-27T01:27:37.496Z,17.27
2018-04-27T01:30:40.824Z,20.73
2018-04-27T01:33:44.211Z,14.70
2018-04-27T01:36:49.044Z,16.37
2018-04-27T01:39:52.336Z,17.20
2018-04-27T01:42:55.737Z,14.37
2018-04-27T01:45:59.969Z,20.93
2018-04-27T01:49:03.345Z,18.90
2018-04-27T01:52:06.641Z,13.80
2018-04-27T01:55:09.970Z,11.97
2018-04-27T01:58:14.032Z,22.97
2018-04-27T02:01:17.366Z,19.33
2018-04-27T02:04:20.743Z,12.37
2018-04-27T02:07:24.060Z,14.23
2018-04-27T02:10:27.360Z,16.27
2018-04-27T02:13:30.680Z,16.60
2018-04-27T02:16:33.976Z,17.30
2018-04-27T02:19:37.306Z,17.23
2018-04-27T02:22:40.621Z,17.43
2018-04-27T02:25:43.958Z,20.03
2018-04-27T02:28:48.045Z,16.80
2018-04-27T02:31:51.472Z,13.97
2018-04-27T02:34:56.294Z,15.90
2018-04-27T02:37:59.626Z,15.20
2018-04-27T02:41:02.924Z,13.23
2018-04-27T02:44:06.291Z,18.77
2018-04-27T02:47:09.597Z,17.10
2018-04-27T02:50:12.929Z,15.97
2018-04-27T02:53:16.996Z,15.43
2018-04-27T02:56:20.390Z,10.67
2018-04-27T02:59:23.701Z,20.20
2018-04-27T03:02:27.091Z,13.93
2018-04-27T03:05:30.502Z,16.63
2018-04-27T03:08:33.854Z,15.10
2018-04-27T03:11:37.161Z,14.57
2018-04-27T03:14:40.593Z,12.03
2018-04-27T03:17:43.990Z,17.37
2018-04-27T03:20:47.304Z,16.77
2018-04-27T03:23:50.617Z,12.47
2018-04-27T03:26:53.984Z,16.33
2018-04-27T03:29:57.284Z,17.83
2018-04-27T03:33:00.686Z,13.73
2018-04-27T03:36:03.990Z,13.73
2018-04-27T03:39:07.312Z,15.17
2018-04-27T03:42:10.617Z,16.03
2018-04-27T03:45:14.795Z,13.93
2018-04-27T03:48:18.093Z,18.83
2018-04-27T03:51:21.496Z,21.63
2018-04-27T03:54:24.892Z,19.00
2018-04-27T03:57:28.227Z,18.00
2018-04-27T04:00:49.415Z,16.10
2018-04-27T04:04:10.534Z,21.00
2018-04-27T04:07:13.828Z,17.40
2018-04-27T04:10:17.223Z,18.10
2018-04-27T04:13:20.537Z,13.53
2018-04-27T04:16:23.863Z,15.03
2018-04-27T04:19:27.938Z,13.60
2018-04-27T04:22:31.338Z,18.00
2018-04-27T04:25:34.741Z,12.13
2018-04-27T04:28:38.091Z,13.20
2018-04-27T04:31:41.403Z,14.23
2018-04-27T04:34:44.834Z,16.43
2018-04-27T04:37:48.242Z,18.70
2018-04-27T04:40:51.578Z,16.30
2018-04-27T04:43:55.650Z,15.33
2018-04-27T04:46:58.976Z,15.57
2018-04-27T04:50:02.301Z,12.80
2018-04-27T04:53:05.623Z,18.27
2018-04-27T04:56:08.959Z,23.13
2018-04-27T04:59:12.283Z,16.63
2018-04-27T05:02:16.356Z,14.03
2018-04-27T05:05:19.681Z,14.20
2018-04-27T05:08:23.046Z,13.07
2018-04-27T05:11:26.388Z,20.37
2018-04-27T05:14:30.460Z,18.70
2018-04-27T05:17:33.897Z,17.57
2018-04-27T05:20:37.270Z,16.10
2018-04-27T05:23:40.661Z,20.00
2018-04-27T05:26:43.969Z,19.23
2018-04-27T05:29:47.400Z,18.90
2018-04-27T05:32:50.738Z,20.57
2018-04-27T05:35:54.156Z,22.80
2018-04-27T05:38:57.448Z,16.47
2018-04-27T05:42:00.776Z,17.83
2018-04-27T05:45:04.161Z,16.73
2018-04-27T05:48:07.550Z,23.23
2018-04-27T05:51:10.858Z,20.00
2018-04-27T05:54:14.249Z,21.13
2018-04-27T05:57:17.560Z,21.70
2018-04-27T06:00:20.876Z,20.77
2018-04-27T06:03:24.314Z,23.03
2018-04-27T06:06:27.624Z,21.37
2018-04-27T06:09:30.941Z,21.93
2018-04-27T06:12:34.242Z,20.53
2018-04-27T06:15:37.574Z,20.00
2018-04-27T06:18:40.944Z,26.60
2018-04-27T06:21:44.265Z,23.27
2018-04-27T06:24:47.585Z,23.30
2018-04-27T06:27:51.660Z,28.87
2018-04-27T06:30:54.990Z,20.97
2018-04-27T06:33:59.918Z,24.50
2018-04-27T06:37:03.241Z,19.33
2018-04-27T06:40:06.560Z,22.90
2018-04-27T06:43:09.873Z,20.77
2018-04-27T06:46:13.206Z,25.10
2018-04-27T06:49:16.595Z,20.17
2018-04-27T06:52:20.006Z,20.67
2018-04-27T06:55:23.369Z,18.47
2018-04-27T06:58:26.738Z,22.03
2018-04-27T07:01:30.097Z,16.33
2018-04-27T07:04:33.479Z,18.47
2018-04-27T07:07:36.788Z,14.07
2018-04-27T07:10:40.128Z,20.50
2018-04-27T07:13:44.288Z,15.07
2018-04-27T07:16:47.719Z,12.90
2018-04-27T07:19:50.994Z,16.13
2018-04-27T07:22:54.310Z,11.87
2018-04-27T07:25:57.704Z,15.60
2018-04-27T07:29:01.091Z,18.07
2018-04-27T07:32:04.411Z,13.07
2018-04-27T07:35:07.790Z,12.97
2018-04-27T07:38:11.222Z,12.10
2018-04-27T07:41:15.322Z,14.77
2018-04-27T07:44:18.703Z,14.53
2018-04-27T07:47:22.161Z,13.57
2018-04-27T07:50:25.506Z,12.07
2018-04-27T07:53:28.910Z,14.27
2018-04-27T07:56:32.323Z,11.23
2018-04-27T07:59:35.726Z,15.60
2018-04-27T08:02:39.032Z,16.83
2018-04-27T08:05:42.390Z,14.47
2018-04-27T08:08:45.801Z,14.67
2018-04-27T08:11:49.822Z,16.57
2018-04-27T08:14:53.232Z,12.03
2018-04-27T08:17:56.548Z,13.00
2018-04-27T08:21:00.633Z,11.77
2018-04-27T08:24:03.948Z,12.63
2018-04-27T08:27:07.351Z,9.27
2018-04-27T08:30:10.783Z,9.57
2018-04-27T08:33:14.183Z,12.23
2018-04-27T08:36:17.567Z,9.23
2018-04-27T08:39:20.927Z,7.57
2018-04-27T08:42:24.253Z,11.07
2018-04-27T08:45:28.356Z,13.60
2018-04-27T08:48:33.269Z,11.13
2018-04-27T08:51:36.734Z,13.83
2018-04-27T08:54:40.053Z,9.80
2018-04-27T08:57:43.459Z,9.47
2018-04-27T09:00:46.801Z,10.17
2018-04-27T09:03:50.129Z,16.03
2018-04-27T09:06:53.448Z,12.17
2018-04-27T09:09:56.774Z,9.07
2018-04-27T09:13:00.081Z,7.63
2018-04-27T09:16:03.461Z,6.27
2018-04-27T09:19:06.926Z,8.47
2018-04-27T09:22:10.253Z,4.13
2018-04-27T09:25:13.602Z,8.40
2018-04-27T09:28:17.690Z,8.43
2018-04-27T09:31:21.020Z,10.13
2018-04-27T09:34:25.123Z,10.50
2018-04-27T09:37:28.500Z,9.50
2018-04-27T09:40:31.831Z,10.27
2018-04-27T09:43:35.934Z,10.03
2018-04-27T09:46:39.309Z,10.17
2018-04-27T09:49:42.709Z,11.33
2018-04-27T09:52:46.019Z,12.07
2018-04-27T09:55:49.348Z,7.33
2018-04-27T09:58:53.427Z,7.83
2018-04-27T10:01:56.774Z,10.97
2018-04-27T10:05:00.136Z,7.87
2018-04-27T10:08:03.454Z,9.00
2018-04-27T10:11:07.542Z,9.77
2018-04-27T10:14:10.873Z,8.13
2018-04-27T10:17:14.936Z,8.23
2018-04-27T10:20:18.268Z,10.77
2018-04-27T10:23:21.603Z,13.80
2018-04-27T10:26:24.954Z,11.20
2018-04-27T10:29:28.297Z,16.93
2018-04-27T10:32:31.598Z,8.03
2018-04-27T10:35:34.957Z,8.43
2018-04-27T10:38:38.270Z,10.33
2018-04-27T10:41:42.357Z,9.83
2018-04-27T10:44:45.767Z,12.37
2018-04-27T10:47:49.105Z,11.70
2018-04-27T10:50:52.427Z,14.87
2018-04-27T10:53:55.751Z,12.47
2018-04-27T10:56:59.082Z,8.67
2018-04-27T11:00:03.192Z,11.23
2018-04-27T11:03:06.586Z,11.20
2018-04-27T11:06:10.672Z,13.70
2018-04-27T11:09:14.082Z,11.90
2018-04-27T11:12:17.397Z,10.10
2018-04-27T11:15:20.726Z,6.93
2018-04-27T11:18:24.804Z,8.43
2018-04-27T11:21:28.129Z,10.67
2018-04-27T11:24:32.226Z,10.60
2018-04-27T11:27:36.331Z,8.77
2018-04-27T11:30:39.706Z,13.00
2018-04-27T11:33:43.038Z,10.50
2018-04-27T11:36:46.412Z,7.47
2018-04-27T11:39:49.814Z,9.70
2018-04-27T11:42:53.120Z,11.73
2018-04-27T11:45:56.467Z,9.07
2018-04-27T11:49:00.537Z,6.13
2018-04-27T11:52:03.873Z,9.37
2018-04-27T11:55:07.975Z,9.80
2018-04-27T11:58:11.337Z,6.97
2018-04-27T12:01:14.666Z,8.43
2018-04-27T12:04:18.050Z,9.73
2018-04-27T12:07:21.398Z,10.50
2018-04-27T12:10:24.726Z,10.03
2018-04-27T12:13:28.035Z,6.97
2018-04-27T12:16:31.369Z,8.57
2018-04-27T12:19:34.697Z,7.03
2018-04-27T12:22:38.026Z,5.00
2018-04-27T12:25:41.437Z,8.53
2018-04-27T12:28:44.781Z,7.80
2018-04-27T12:31:49.083Z,8.63
2018-04-27T12:34:52.221Z,7.63
2018-04-27T12:37:55.549Z,4.63
2018-04-27T12:40:58.879Z,8.23
2018-04-27T12:44:02.958Z,5.87
2018-04-27T12:47:06.355Z,7.23
2018-04-27T12:50:09.678Z,8.10
2018-04-27T12:53:13.831Z,4.43
2018-04-27T12:56:17.163Z,7.80
2018-04-27T12:59:20.574Z,5.77
2018-04-27T13:02:23.992Z,5.67
2018-04-27T13:05:27.380Z,6.33
2018-04-27T13:08:30.783Z,7.20
2018-04-27T13:11:34.170Z,6.07
2018-04-27T13:14:37.571Z,5.97
2018-04-27T13:17:41.694Z,7.13
2018-04-27T13:20:45.011Z,3.67
2018-04-27T13:23:48.361Z,3.73
2018-04-27T13:26:51.696Z,9.63
2018-04-27T13:29:55.061Z,4.00
2018-04-27T13:32:58.439Z,5.93
2018-04-27T13:36:01.891Z,5.60
2018-04-27T13:39:05.957Z,6.17
2018-04-27T13:42:09.407Z,7.77
2018-04-27T13:45:12.860Z,8.57
2018-04-27T13:48:16.317Z,10.90
2018-04-27T13:51:19.654Z,5.97
2018-04-27T13:54:22.997Z,5.67
2018-04-27T13:57:26.341Z,5.63
2018-04-27T14:00:30.451Z,4.70
2018-04-27T14:03:34.533Z,6.67
2018-04-27T14:06:37.872Z,5.10
2018-04-27T14:09:42.008Z,4.90
2018-04-27T14:12:45.357Z,6.93
2018-04-27T14:15:48.738Z,3.37
2018-04-27T14:18:52.147Z,6.23
2018-04-27T14:21:55.551Z,6.63
2018-04-27T14:24:58.904Z,5.90
2018-04-27T14:28:02.243Z,8.17
2018-04-27T14:31:05.641Z,4.70
2018-04-27T14:34:09.056Z,5.80
2018-04-27T14:37:12.411Z,5.50
2018-04-27T14:40:15.733Z,7.47
2018-04-27T14:43:19.069Z,7.70
2018-04-27T14:46:22.442Z,7.03
2018-04-27T14:49:25.851Z,6.53
2018-04-27T14:52:29.271Z,8.83
2018-04-27T14:55:33.381Z,7.47
2018-04-27T14:58:36.757Z,6.27
2018-04-27T15:01:40.090Z,6.63
2018-04-27T15:04:44.211Z,6.60
2018-04-27T15:07:48.314Z,8.53
2018-04-27T15:10:52.402Z,8.00
2018-04-27T15:13:55.847Z,6.27
2018-04-27T15:17:00.038Z,5.00
2018-04-27T15:20:03.427Z,4.93
2018-04-27T15:23:06.882Z,4.53
2018-04-27T15:26:10.230Z,7.33
2018-04-27T15:29:13.543Z,6.07
2018-04-27T15:32:16.876Z,6.03
2018-04-27T15:35:20.194Z,7.83
2018-04-27T15:38:23.615Z,8.30
2018-04-27T15:41:26.982Z,4.80
2018-04-27T15:44:30.421Z,6.00
2018-04-27T15:47:33.844Z,8.17
2018-04-27T15:50:38.056Z,4.43
2018-04-27T15:53:41.371Z,6.13
2018-04-27T15:56:45.515Z,10.17
2018-04-27T15:59:48.826Z,7.50
2018-04-27T16:02:52.209Z,7.30
2018-04-27T16:05:55.512Z,7.80
2018-04-27T16:08:58.849Z,6.80
2018-04-27T16:12:03.104Z,10.87
2018-04-27T16:15:07.290Z,6.20
2018-04-27T16:18:10.681Z,6.37
2018-04-27T16:21:14.044Z,6.43
2018-04-27T16:24:18.220Z,7.10
2018-04-27T16:27:21.569Z,6.17
2018-04-27T16:30:24.957Z,8.83
2018-04-27T16:33:28.417Z,9.33
2018-04-27T16:36:32.514Z,6.37
2018-04-27T16:39:35.978Z,7.93
2018-04-27T16:42:39.315Z,7.33
2018-04-27T16:45:42.672Z,6.90
2018-04-27T16:48:46.029Z,5.47
2018-04-27T16:51:49.473Z,9.00
2018-04-27T16:54:52.830Z,7.37
2018-04-27T16:57:56.204Z,8.23
2018-04-27T17:00:59.536Z,6.63
2018-04-27T17:04:03.734Z,6.03
2018-04-27T17:07:07.150Z,5.17
2018-04-27T17:10:10.539Z,7.60
2018-04-27T17:13:13.940Z,6.60
2018-04-27T17:16:17.335Z,9.67
2018-04-27T17:19:20.705Z,9.83
2018-04-27T17:22:24.196Z,7.87
2018-04-27T17:25:27.500Z,6.47
2018-04-27T17:28:30.948Z,6.50
2018-04-27T17:31:34.275Z,7.70
2018-04-27T17:34:38.404Z,7.50
2018-04-27T17:37:41.771Z,8.90
2018-04-27T17:40:45.099Z,6.50
2018-04-27T17:43:49.260Z,8.33
2018-04-27T17:46:52.681Z,6.63
2018-04-27T17:49:56.011Z,8.20
2018-04-27T17:53:00.120Z,5.33
2018-04-27T17:56:04.197Z,10.87
2018-04-27T17:59:07.612Z,11.17
2018-04-27T18:02:10.938Z,19.10
2018-04-27T18:05:15.115Z,9.47
2018-04-27T18:08:18.433Z,11.43
2018-04-27T18:11:21.814Z,10.53
2018-04-27T18:14:25.140Z,10.03
2018-04-27T18:17:29.269Z,8.47
2018-04-27T18:20:33.378Z,10.37
2018-04-27T18:23:37.485Z,6.97
2018-04-27T18:26:40.863Z,8.63
2018-04-27T18:29:44.290Z,14.87
2018-04-27T18:32:49.112Z,13.03
2018-04-27T18:35:52.442Z,13.17
2018-04-27T18:38:56.604Z,9.43
2018-04-27T18:42:00.009Z,9.13
2018-04-27T18:45:03.424Z,8.33
2018-04-27T18:48:07.708Z,8.97
2018-04-27T18:51:13.601Z,8.90
2018-04-27T18:54:17.013Z,9.37
2018-04-27T18:57:25.945Z,10.90
2018-04-27T19:00:32.810Z,11.10
2018-04-27T19:03:36.201Z,10.67
2018-04-27T19:06:39.606Z,8.17
2018-04-27T19:09:42.915Z,10.33
2018-04-27T19:12:46.293Z,7.67
2018-04-27T19:15:49.689Z,9.10
2018-04-27T19:18:56.894Z,7.93
2018-04-27T19:22:00.243Z,10.20
2018-04-27T19:25:03.612Z,11.33
2018-04-27T19:28:06.926Z,15.40
2018-04-27T19:31:11.040Z,11.17
2018-04-27T19:34:15.935Z,10.53
2018-04-27T19:37:19.278Z,12.00
2018-04-27T19:40:23.467Z,11.83
2018-04-27T19:43:27.586Z,10.47
2018-04-27T19:46:31.024Z,10.87
2018-04-27T19:49:34.436Z,14.43
2018-04-27T19:52:37.803Z,18.03
2018-04-27T19:55:41.934Z,12.47
2018-04-27T19:58:45.306Z,11.90
2018-04-27T20:01:48.650Z,13.70
2018-04-27T20:04:52.062Z,16.57
2018-04-27T20:07:56.149Z,17.47
2018-04-27T20:10:59.574Z,12.77
2018-04-27T20:14:02.994Z,10.83
2018-04-27T20:17:06.312Z,11.37
2018-04-27T20:20:16.073Z,9.60
2018-04-27T20:23:19.449Z,10.53
2018-04-27T20:26:22.802Z,12.43
2018-04-27T20:29:26.144Z,10.83
2018-04-27T20:32:29.497Z,14.87
2018-04-27T20:35:32.808Z,15.73
2018-04-27T20:38:36.245Z,13.83
2018-04-27T20:41:39.561Z,12.67
2018-04-27T20:44:42.956Z,15.30
2018-04-27T20:47:46.301Z,16.00
2018-04-27T20:50:52.154Z,13.50
2018-04-27T20:54:13.890Z,15.50
2018-04-27T20:57:17.392Z,14.73
2018-04-27T21:00:28.351Z,17.27
2018-04-27T21:03:31.842Z,11.57
2018-04-27T21:06:36.191Z,14.60
2018-04-27T21:09:39.713Z,11.07
2018-04-27T21:12:43.138Z,16.20
2018-04-27T21:15:46.859Z,11.30
2018-04-27T21:18:50.457Z,13.87
2018-04-27T21:21:54.229Z,14.30
2018-04-27T21:24:57.650Z,11.43
2018-04-27T21:28:01.287Z,13.93
2018-04-27T21:31:08.186Z,13.80
2018-04-27T21:34:11.806Z,13.90
2018-04-27T21:37:15.281Z,17.93
2018-04-27T21:40:19.654Z,12.20
2018-04-27T21:43:23.444Z,11.70
2018-04-27T21:46:27.014Z,13.57
2018-04-27T21:49:31.251Z,14.77
2018-04-27T21:52:50.153Z,13.97
2018-04-27T21:55:53.861Z,17.07
2018-04-27T21:58:57.303Z,13.97
2018-04-27T22:02:00.813Z,18.60
2018-04-27T22:05:15.607Z,15.83
2018-04-27T22:12:04.478Z,14.43
2018-04-27T22:15:07.902Z,15.10
2018-04-27T22:18:11.339Z,12.57
2018-04-27T22:21:14.898Z,15.10
2018-04-27T22:24:26.595Z,14.40
2018-04-27T22:27:31.926Z,18.07
2018-04-27T22:30:36.872Z,12.10
2018-04-27T22:33:57.318Z,15.47
2018-04-27T22:37:00.908Z,11.67
2018-04-27T22:40:11.034Z,14.47
2018-04-27T22:43:17.422Z,15.53
2018-04-27T22:46:21.598Z,15.03
2018-04-27T22:49:25.702Z,15.43
2018-04-27T22:52:35.113Z,13.47
2018-04-27T22:55:38.417Z,12.77
2018-04-27T22:58:41.720Z,13.23
2018-04-27T23:01:45.038Z,15.70
2018-04-27T23:08:26.326Z,12.57
2018-04-27T23:11:29.727Z,12.33
2018-04-27T23:14:37.763Z,12.63
2018-04-27T23:17:41.074Z,22.10
2018-04-27T23:20:57.690Z,10.87
2018-04-27T23:24:00.995Z,11.20
2018-04-27T23:27:05.090Z,14.00
2018-04-27T23:30:09.170Z,15.70
2018-04-27T23:33:13.995Z,12.03
2018-04-27T23:36:17.327Z,15.50
2018-04-27T23:39:20.666Z,15.37
2018-04-27T23:42:26.781Z,11.13
2018-04-27T23:45:30.088Z,11.13
2018-04-27T23:48:33.454Z,12.10
2018-04-27T23:51:36.748Z,12.07
2018-04-27T23:54:40.049Z,8.87
2018-04-27T23:57:44.072Z,11.87
